sensor_id;sensor_type;location;lat;lon;timestamp;temperature;humidity
34145;HTU21D;69555;53.014;8.886;2024-03-22T00:01:13;9.60;100.19
34145;HTU21D;69555;53.014;8.886;2024-03-22T00:03:38;9.59;100.25
34145;HTU21D;69555;53.014;8.886;2024-03-22T00:06:04;9.65;99.93
34145;HTU21D;69555;53.014;8.886;2024-03-22T00:08:29;9.56;100.30
34145;HTU21D;69555;53.014;8.886;2024-03-22T00:10:55;9.61;100.54
34145;HTU21D;69555;53.014;8.886;2024-03-22T00:13:21;9.62;100.25
34145;HTU21D;69555;53.014;8.886;2024-03-22T00:15:47;9.61;100.10
34145;HTU21D;69555;53.014;8.886;2024-03-22T00:18:12;9.64;100.18
34145;HTU21D;69555;53.014;8.886;2024-03-22T00:20:38;9.65;100.28
34145;HTU21D;69555;53.014;8.886;2024-03-22T00:23:03;9.67;99.95
34145;HTU21D;69555;53.014;8.886;2024-03-22T00:25:29;9.72;99.59
34145;HTU21D;69555;53.014;8.886;2024-03-22T00:27:55;9.85;98.98
34145;HTU21D;69555;53.014;8.886;2024-03-22T00:30:20;9.75;99.32
34145;HTU21D;69555;53.014;8.886;2024-03-22T00:32:47;9.69;99.55
34145;HTU21D;69555;53.014;8.886;2024-03-22T00:35:13;9.72;99.20
34145;HTU21D;69555;53.014;8.886;2024-03-22T00:37:38;9.77;98.92
34145;HTU21D;69555;53.014;8.886;2024-03-22T00:40:04;9.74;99.32
34145;HTU21D;69555;53.014;8.886;2024-03-22T00:42:30;9.69;99.45
34145;HTU21D;69555;53.014;8.886;2024-03-22T00:44:55;9.77;98.90
34145;HTU21D;69555;53.014;8.886;2024-03-22T00:47:22;9.76;99.11
34145;HTU21D;69555;53.014;8.886;2024-03-22T00:49:47;9.76;98.77
34145;HTU21D;69555;53.014;8.886;2024-03-22T00:52:13;9.80;98.84
34145;HTU21D;69555;53.014;8.886;2024-03-22T00:54:38;9.81;98.41
34145;HTU21D;69555;53.014;8.886;2024-03-22T00:57:05;9.75;99.12
34145;HTU21D;69555;53.014;8.886;2024-03-22T00:59:31;9.80;98.51
34145;HTU21D;69555;53.014;8.886;2024-03-22T01:01:56;9.76;99.03
34145;HTU21D;69555;53.014;8.886;2024-03-22T01:04:22;9.83;98.39
34145;HTU21D;69555;53.014;8.886;2024-03-22T01:06:47;9.84;98.25
34145;HTU21D;69555;53.014;8.886;2024-03-22T01:09:13;9.85;98.26
34145;HTU21D;69555;53.014;8.886;2024-03-22T01:11:38;9.93;97.88
34145;HTU21D;69555;53.014;8.886;2024-03-22T01:14:04;9.82;98.80
34145;HTU21D;69555;53.014;8.886;2024-03-22T01:16:29;9.80;98.65
34145;HTU21D;69555;53.014;8.886;2024-03-22T01:18:54;9.86;98.37
34145;HTU21D;69555;53.014;8.886;2024-03-22T01:21:20;9.86;98.39
34145;HTU21D;69555;53.014;8.886;2024-03-22T01:23:53;9.90;97.96
34145;HTU21D;69555;53.014;8.886;2024-03-22T01:26:18;9.85;98.80
34145;HTU21D;69555;53.014;8.886;2024-03-22T01:28:44;9.90;98.61
34145;HTU21D;69555;53.014;8.886;2024-03-22T01:31:09;9.88;98.64
34145;HTU21D;69555;53.014;8.886;2024-03-22T01:33:35;9.97;98.00
34145;HTU21D;69555;53.014;8.886;2024-03-22T01:36:00;9.97;97.84
34145;HTU21D;69555;53.014;8.886;2024-03-22T01:38:26;9.92;98.08
34145;HTU21D;69555;53.014;8.886;2024-03-22T01:40:51;9.89;98.59
34145;HTU21D;69555;53.014;8.886;2024-03-22T01:43:16;9.85;98.92
34145;HTU21D;69555;53.014;8.886;2024-03-22T01:45:42;9.84;98.76
34145;HTU21D;69555;53.014;8.886;2024-03-22T01:48:08;9.80;99.24
34145;HTU21D;69555;53.014;8.886;2024-03-22T01:50:33;9.81;99.09
34145;HTU21D;69555;53.014;8.886;2024-03-22T01:53:00;9.83;99.00
34145;HTU21D;69555;53.014;8.886;2024-03-22T01:55:27;9.91;98.68
34145;HTU21D;69555;53.014;8.886;2024-03-22T01:57:52;9.89;98.90
34145;HTU21D;69555;53.014;8.886;2024-03-22T02:00:19;9.86;99.13
34145;HTU21D;69555;53.014;8.886;2024-03-22T02:02:44;9.89;99.33
34145;HTU21D;69555;53.014;8.886;2024-03-22T02:05:16;9.93;99.19
34145;HTU21D;69555;53.014;8.886;2024-03-22T02:07:47;9.99;99.03
34145;HTU21D;69555;53.014;8.886;2024-03-22T02:10:13;9.92;99.42
34145;HTU21D;69555;53.014;8.886;2024-03-22T02:12:39;10.04;98.85
34145;HTU21D;69555;53.014;8.886;2024-03-22T02:15:06;9.89;99.80
34145;HTU21D;69555;53.014;8.886;2024-03-22T02:17:35;9.84;100.24
34145;HTU21D;69555;53.014;8.886;2024-03-22T02:20:01;9.83;100.46
34145;HTU21D;69555;53.014;8.886;2024-03-22T02:22:27;9.86;100.70
34145;HTU21D;69555;53.014;8.886;2024-03-22T02:24:53;9.89;100.76
34145;HTU21D;69555;53.014;8.886;2024-03-22T02:27:18;9.92;100.80
34145;HTU21D;69555;53.014;8.886;2024-03-22T02:29:44;9.97;100.54
34145;HTU21D;69555;53.014;8.886;2024-03-22T02:32:09;9.95;100.86
34145;HTU21D;69555;53.014;8.886;2024-03-22T02:34:35;9.93;100.98
34145;HTU21D;69555;53.014;8.886;2024-03-22T02:37:01;9.93;100.91
34145;HTU21D;69555;53.014;8.886;2024-03-22T02:39:26;9.93;101.25
34145;HTU21D;69555;53.014;8.886;2024-03-22T02:41:52;9.96;101.36
34145;HTU21D;69555;53.014;8.886;2024-03-22T02:44:17;9.91;101.44
34145;HTU21D;69555;53.014;8.886;2024-03-22T02:46:43;9.97;101.32
34145;HTU21D;69555;53.014;8.886;2024-03-22T02:49:08;10.00;101.28
34145;HTU21D;69555;53.014;8.886;2024-03-22T02:51:34;9.96;101.59
34145;HTU21D;69555;53.014;8.886;2024-03-22T02:53:59;9.92;102.38
34145;HTU21D;69555;53.014;8.886;2024-03-22T02:56:24;10.04;101.51
34145;HTU21D;69555;53.014;8.886;2024-03-22T02:58:50;10.01;101.77
34145;HTU21D;69555;53.014;8.886;2024-03-22T03:01:15;9.99;102.15
34145;HTU21D;69555;53.014;8.886;2024-03-22T03:03:41;9.99;102.28
34145;HTU21D;69555;53.014;8.886;2024-03-22T03:06:06;9.99;102.38
34145;HTU21D;69555;53.014;8.886;2024-03-22T03:08:32;9.95;102.70
34145;HTU21D;69555;53.014;8.886;2024-03-22T03:10:57;9.96;103.09
34145;HTU21D;69555;53.014;8.886;2024-03-22T03:13:23;9.99;102.91
34145;HTU21D;69555;53.014;8.886;2024-03-22T03:15:48;10.03;102.76
34145;HTU21D;69555;53.014;8.886;2024-03-22T03:18:14;9.98;103.24
34145;HTU21D;69555;53.014;8.886;2024-03-22T03:20:39;10.12;102.70
34145;HTU21D;69555;53.014;8.886;2024-03-22T03:23:04;10.04;103.13
34145;HTU21D;69555;53.014;8.886;2024-03-22T03:25:30;10.04;103.26
34145;HTU21D;69555;53.014;8.886;2024-03-22T03:27:55;10.13;102.88
34145;HTU21D;69555;53.014;8.886;2024-03-22T03:30:21;10.15;103.05
34145;HTU21D;69555;53.014;8.886;2024-03-22T03:32:46;10.16;103.10
34145;HTU21D;69555;53.014;8.886;2024-03-22T03:35:12;10.18;103.03
34145;HTU21D;69555;53.014;8.886;2024-03-22T03:37:37;10.22;103.12
34145;HTU21D;69555;53.014;8.886;2024-03-22T03:40:03;10.21;103.21
34145;HTU21D;69555;53.014;8.886;2024-03-22T03:42:29;10.19;103.55
34145;HTU21D;69555;53.014;8.886;2024-03-22T03:44:55;10.28;103.35
34145;HTU21D;69555;53.014;8.886;2024-03-22T03:47:20;10.27;103.45
34145;HTU21D;69555;53.014;8.886;2024-03-22T03:49:46;10.30;103.65
34145;HTU21D;69555;53.014;8.886;2024-03-22T03:52:13;10.34;103.26
34145;HTU21D;69555;53.014;8.886;2024-03-22T03:54:39;10.31;103.66
34145;HTU21D;69555;53.014;8.886;2024-03-22T03:57:05;10.30;103.86
34145;HTU21D;69555;53.014;8.886;2024-03-22T03:59:30;10.38;103.47
34145;HTU21D;69555;53.014;8.886;2024-03-22T04:01:56;10.38;103.56
34145;HTU21D;69555;53.014;8.886;2024-03-22T04:04:21;10.39;103.61
34145;HTU21D;69555;53.014;8.886;2024-03-22T04:06:47;10.39;103.71
34145;HTU21D;69555;53.014;8.886;2024-03-22T04:09:12;10.38;103.59
34145;HTU21D;69555;53.014;8.886;2024-03-22T04:11:38;10.41;103.40
34145;HTU21D;69555;53.014;8.886;2024-03-22T04:14:06;10.36;103.86
34145;HTU21D;69555;53.014;8.886;2024-03-22T04:16:32;10.41;103.75
34145;HTU21D;69555;53.014;8.886;2024-03-22T04:18:57;10.41;103.76
34145;HTU21D;69555;53.014;8.886;2024-03-22T04:21:23;10.41;103.62
34145;HTU21D;69555;53.014;8.886;2024-03-22T04:23:48;10.49;103.47
34145;HTU21D;69555;53.014;8.886;2024-03-22T04:26:14;10.50;103.43
34145;HTU21D;69555;53.014;8.886;2024-03-22T04:28:40;10.46;103.66
34145;HTU21D;69555;53.014;8.886;2024-03-22T04:31:08;10.49;103.66
34145;HTU21D;69555;53.014;8.886;2024-03-22T04:33:37;10.50;103.68
34145;HTU21D;69555;53.014;8.886;2024-03-22T04:36:03;10.51;103.71
34145;HTU21D;69555;53.014;8.886;2024-03-22T04:38:29;10.51;103.69
34145;HTU21D;69555;53.014;8.886;2024-03-22T04:40:55;10.51;103.86
34145;HTU21D;69555;53.014;8.886;2024-03-22T04:43:22;10.57;103.34
34145;HTU21D;69555;53.014;8.886;2024-03-22T04:45:49;10.50;103.83
34145;HTU21D;69555;53.014;8.886;2024-03-22T04:48:18;10.53;103.92
34145;HTU21D;69555;53.014;8.886;2024-03-22T04:50:44;10.53;104.27
34145;HTU21D;69555;53.014;8.886;2024-03-22T04:53:09;10.58;103.79
34145;HTU21D;69555;53.014;8.886;2024-03-22T04:55:35;10.55;104.08
34145;HTU21D;69555;53.014;8.886;2024-03-22T04:58:01;10.59;103.90
34145;HTU21D;69555;53.014;8.886;2024-03-22T05:00:27;10.56;104.31
34145;HTU21D;69555;53.014;8.886;2024-03-22T05:02:53;10.59;104.09
34145;HTU21D;69555;53.014;8.886;2024-03-22T05:05:19;10.63;104.18
34145;HTU21D;69555;53.014;8.886;2024-03-22T05:07:44;10.65;104.08
34145;HTU21D;69555;53.014;8.886;2024-03-22T05:10:10;10.63;104.31
34145;HTU21D;69555;53.014;8.886;2024-03-22T05:12:36;10.59;104.77
34145;HTU21D;69555;53.014;8.886;2024-03-22T05:15:02;10.66;104.66
34145;HTU21D;69555;53.014;8.886;2024-03-22T05:17:29;10.65;104.51
34145;HTU21D;69555;53.014;8.886;2024-03-22T05:19:55;10.69;104.42
34145;HTU21D;69555;53.014;8.886;2024-03-22T05:22:20;10.67;104.66
34145;HTU21D;69555;53.014;8.886;2024-03-22T05:24:46;10.69;104.71
34145;HTU21D;69555;53.014;8.886;2024-03-22T05:27:11;10.70;104.59
34145;HTU21D;69555;53.014;8.886;2024-03-22T05:29:38;10.68;104.74
34145;HTU21D;69555;53.014;8.886;2024-03-22T05:32:03;10.69;104.85
34145;HTU21D;69555;53.014;8.886;2024-03-22T05:34:29;10.71;104.90
34145;HTU21D;69555;53.014;8.886;2024-03-22T05:36:55;10.69;105.06
34145;HTU21D;69555;53.014;8.886;2024-03-22T05:39:20;10.71;105.18
34145;HTU21D;69555;53.014;8.886;2024-03-22T05:41:46;10.71;105.17
34145;HTU21D;69555;53.014;8.886;2024-03-22T05:44:11;10.70;105.30
34145;HTU21D;69555;53.014;8.886;2024-03-22T05:46:37;10.69;105.43
34145;HTU21D;69555;53.014;8.886;2024-03-22T05:49:02;10.65;105.76
34145;HTU21D;69555;53.014;8.886;2024-03-22T05:51:28;10.65;105.99
34145;HTU21D;69555;53.014;8.886;2024-03-22T05:53:55;10.72;105.73
34145;HTU21D;69555;53.014;8.886;2024-03-22T05:56:21;10.84;105.41
34145;HTU21D;69555;53.014;8.886;2024-03-22T05:58:47;10.75;105.52
34145;HTU21D;69555;53.014;8.886;2024-03-22T06:01:12;10.79;105.41
34145;HTU21D;69555;53.014;8.886;2024-03-22T06:03:38;10.80;105.52
34145;HTU21D;69555;53.014;8.886;2024-03-22T06:06:03;10.80;105.64
34145;HTU21D;69555;53.014;8.886;2024-03-22T06:08:29;10.78;105.71
34145;HTU21D;69555;53.014;8.886;2024-03-22T06:10:57;10.77;105.97
34145;HTU21D;69555;53.014;8.886;2024-03-22T06:13:22;10.78;105.80
34145;HTU21D;69555;53.014;8.886;2024-03-22T06:15:48;10.82;105.81
34145;HTU21D;69555;53.014;8.886;2024-03-22T06:18:14;10.82;106.14
34145;HTU21D;69555;53.014;8.886;2024-03-22T06:20:40;10.87;105.75
34145;HTU21D;69555;53.014;8.886;2024-03-22T06:23:06;10.85;105.94
34145;HTU21D;69555;53.014;8.886;2024-03-22T06:25:32;10.86;106.06
34145;HTU21D;69555;53.014;8.886;2024-03-22T06:27:57;10.96;105.42
34145;HTU21D;69555;53.014;8.886;2024-03-22T06:30:23;10.92;105.39
34145;HTU21D;69555;53.014;8.886;2024-03-22T06:32:48;10.94;105.63
34145;HTU21D;69555;53.014;8.886;2024-03-22T06:35:14;10.95;105.72
34145;HTU21D;69555;53.014;8.886;2024-03-22T06:37:40;10.93;105.72
34145;HTU21D;69555;53.014;8.886;2024-03-22T06:40:07;10.90;106.05
34145;HTU21D;69555;53.014;8.886;2024-03-22T06:42:32;10.94;106.29
34145;HTU21D;69555;53.014;8.886;2024-03-22T06:44:58;10.95;106.24
34145;HTU21D;69555;53.014;8.886;2024-03-22T06:47:23;10.94;106.34
34145;HTU21D;69555;53.014;8.886;2024-03-22T06:49:49;10.95;106.24
34145;HTU21D;69555;53.014;8.886;2024-03-22T06:52:14;10.93;107.42
34145;HTU21D;69555;53.014;8.886;2024-03-22T06:54:41;10.92;107.75
34145;HTU21D;69555;53.014;8.886;2024-03-22T06:57:06;10.86;108.26
34145;HTU21D;69555;53.014;8.886;2024-03-22T06:59:32;10.87;108.35
34145;HTU21D;69555;53.014;8.886;2024-03-22T07:01:58;10.80;108.85
34145;HTU21D;69555;53.014;8.886;2024-03-22T07:04:23;10.81;109.01
34145;HTU21D;69555;53.014;8.886;2024-03-22T07:06:48;10.83;109.30
34145;HTU21D;69555;53.014;8.886;2024-03-22T07:09:14;10.82;109.06
34145;HTU21D;69555;53.014;8.886;2024-03-22T07:11:40;10.87;109.04
34145;HTU21D;69555;53.014;8.886;2024-03-22T07:14:06;10.85;109.62
34145;HTU21D;69555;53.014;8.886;2024-03-22T07:16:31;10.90;109.81
34145;HTU21D;69555;53.014;8.886;2024-03-22T07:18:57;10.90;109.74
34145;HTU21D;69555;53.014;8.886;2024-03-22T07:21:22;10.98;109.62
34145;HTU21D;69555;53.014;8.886;2024-03-22T07:23:49;10.88;109.97
34145;HTU21D;69555;53.014;8.886;2024-03-22T07:26:14;10.85;110.04
34145;HTU21D;69555;53.014;8.886;2024-03-22T07:28:40;10.87;110.78
34145;HTU21D;69555;53.014;8.886;2024-03-22T07:31:05;10.93;110.78
34145;HTU21D;69555;53.014;8.886;2024-03-22T07:33:31;10.92;110.66
34145;HTU21D;69555;53.014;8.886;2024-03-22T07:36:01;10.89;110.99
34145;HTU21D;69555;53.014;8.886;2024-03-22T07:38:27;10.86;111.65
34145;HTU21D;69555;53.014;8.886;2024-03-22T07:40:52;10.97;111.75
34145;HTU21D;69555;53.014;8.886;2024-03-22T07:43:18;10.90;112.33
34145;HTU21D;69555;53.014;8.886;2024-03-22T07:45:43;10.95;111.81
34145;HTU21D;69555;53.014;8.886;2024-03-22T07:48:09;10.87;112.42
34145;HTU21D;69555;53.014;8.886;2024-03-22T07:50:35;10.85;112.66
34145;HTU21D;69555;53.014;8.886;2024-03-22T07:53:01;10.84;112.84
34145;HTU21D;69555;53.014;8.886;2024-03-22T07:55:26;10.90;112.75
34145;HTU21D;69555;53.014;8.886;2024-03-22T07:57:52;10.80;113.45
34145;HTU21D;69555;53.014;8.886;2024-03-22T08:00:17;10.88;113.31
34145;HTU21D;69555;53.014;8.886;2024-03-22T08:02:43;10.88;113.39
34145;HTU21D;69555;53.014;8.886;2024-03-22T08:05:08;10.89;113.42
34145;HTU21D;69555;53.014;8.886;2024-03-22T08:07:34;10.95;113.43
34145;HTU21D;69555;53.014;8.886;2024-03-22T08:10:00;10.86;113.54
34145;HTU21D;69555;53.014;8.886;2024-03-22T08:12:27;10.93;113.45
34145;HTU21D;69555;53.014;8.886;2024-03-22T08:14:53;10.87;113.60
34145;HTU21D;69555;53.014;8.886;2024-03-22T08:17:19;10.90;113.64
34145;HTU21D;69555;53.014;8.886;2024-03-22T08:19:44;10.90;113.54
34145;HTU21D;69555;53.014;8.886;2024-03-22T08:22:10;11.05;114.16
34145;HTU21D;69555;53.014;8.886;2024-03-22T08:24:36;11.11;113.49
34145;HTU21D;69555;53.014;8.886;2024-03-22T08:27:02;11.08;113.06
34145;HTU21D;69555;53.014;8.886;2024-03-22T08:29:29;11.20;112.60
34145;HTU21D;69555;53.014;8.886;2024-03-22T08:31:55;11.27;112.08
34145;HTU21D;69555;53.014;8.886;2024-03-22T08:34:21;11.31;111.72
34145;HTU21D;69555;53.014;8.886;2024-03-22T08:36:47;11.36;111.97
34145;HTU21D;69555;53.014;8.886;2024-03-22T08:39:12;11.25;112.62
34145;HTU21D;69555;53.014;8.886;2024-03-22T08:41:38;11.22;111.60
34145;HTU21D;69555;53.014;8.886;2024-03-22T08:44:03;11.22;111.97
34145;HTU21D;69555;53.014;8.886;2024-03-22T08:46:29;11.22;112.23
34145;HTU21D;69555;53.014;8.886;2024-03-22T08:48:54;11.13;111.84
34145;HTU21D;69555;53.014;8.886;2024-03-22T08:51:21;11.11;111.43
34145;HTU21D;69555;53.014;8.886;2024-03-22T08:53:47;11.11;111.39
34145;HTU21D;69555;53.014;8.886;2024-03-22T08:56:12;11.09;111.81
34145;HTU21D;69555;53.014;8.886;2024-03-22T08:58:38;11.11;111.37
34145;HTU21D;69555;53.014;8.886;2024-03-22T09:01:03;11.13;111.25
34145;HTU21D;69555;53.014;8.886;2024-03-22T09:03:29;11.24;111.97
34145;HTU21D;69555;53.014;8.886;2024-03-22T09:05:56;11.22;111.30
34145;HTU21D;69555;53.014;8.886;2024-03-22T09:08:21;11.22;110.07
34145;HTU21D;69555;53.014;8.886;2024-03-22T09:10:47;11.15;109.91
34145;HTU21D;69555;53.014;8.886;2024-03-22T09:13:13;11.12;109.89
34145;HTU21D;69555;53.014;8.886;2024-03-22T09:15:39;11.11;109.74
34145;HTU21D;69555;53.014;8.886;2024-03-22T09:18:04;11.14;109.20
34145;HTU21D;69555;53.014;8.886;2024-03-22T09:20:30;11.07;109.98
34145;HTU21D;69555;53.014;8.886;2024-03-22T09:22:55;11.11;110.07
34145;HTU21D;69555;53.014;8.886;2024-03-22T09:25:23;11.01;110.01
34145;HTU21D;69555;53.014;8.886;2024-03-22T09:27:48;11.16;108.51
34145;HTU21D;69555;53.014;8.886;2024-03-22T09:30:14;11.16;108.85
34145;HTU21D;69555;53.014;8.886;2024-03-22T09:32:40;11.24;109.11
34145;HTU21D;69555;53.014;8.886;2024-03-22T09:35:06;11.26;107.81
34145;HTU21D;69555;53.014;8.886;2024-03-22T09:37:31;11.28;108.38
34145;HTU21D;69555;53.014;8.886;2024-03-22T09:39:58;11.25;108.43
34145;HTU21D;69555;53.014;8.886;2024-03-22T09:42:25;11.25;107.97
34145;HTU21D;69555;53.014;8.886;2024-03-22T09:44:51;11.18;107.91
34145;HTU21D;69555;53.014;8.886;2024-03-22T09:47:17;11.18;106.40
34145;HTU21D;69555;53.014;8.886;2024-03-22T09:49:44;11.24;106.50
34145;HTU21D;69555;53.014;8.886;2024-03-22T09:52:14;11.23;107.18
34145;HTU21D;69555;53.014;8.886;2024-03-22T09:54:43;11.10;106.56
34145;HTU21D;69555;53.014;8.886;2024-03-22T09:57:15;11.16;106.63
34145;HTU21D;69555;53.014;8.886;2024-03-22T09:59:41;11.09;107.27
34145;HTU21D;69555;53.014;8.886;2024-03-22T10:02:09;11.04;107.87
34145;HTU21D;69555;53.014;8.886;2024-03-22T10:04:35;11.08;107.63
34145;HTU21D;69555;53.014;8.886;2024-03-22T10:07:02;11.13;107.42
34145;HTU21D;69555;53.014;8.886;2024-03-22T10:09:29;11.10;108.02
34145;HTU21D;69555;53.014;8.886;2024-03-22T10:11:56;11.09;108.81
34145;HTU21D;69555;53.014;8.886;2024-03-22T10:14:21;11.09;109.52
34145;HTU21D;69555;53.014;8.886;2024-03-22T10:16:47;10.90;110.49
34145;HTU21D;69555;53.014;8.886;2024-03-22T10:19:12;10.89;111.12
34145;HTU21D;69555;53.014;8.886;2024-03-22T10:21:37;10.82;112.23
34145;HTU21D;69555;53.014;8.886;2024-03-22T10:24:03;10.83;112.49
34145;HTU21D;69555;53.014;8.886;2024-03-22T10:26:29;10.80;112.87
34145;HTU21D;69555;53.014;8.886;2024-03-22T10:28:54;10.69;113.45
34145;HTU21D;69555;53.014;8.886;2024-03-22T10:31:20;10.53;114.66
34145;HTU21D;69555;53.014;8.886;2024-03-22T10:33:46;10.45;115.44
34145;HTU21D;69555;53.014;8.886;2024-03-22T10:36:12;10.63;115.31
34145;HTU21D;69555;53.014;8.886;2024-03-22T10:38:39;10.70;115.12
34145;HTU21D;69555;53.014;8.886;2024-03-22T10:41:04;10.73;114.72
34145;HTU21D;69555;53.014;8.886;2024-03-22T10:43:31;10.80;115.19
34145;HTU21D;69555;53.014;8.886;2024-03-22T10:46:02;10.99;112.76
34145;HTU21D;69555;53.014;8.886;2024-03-22T10:48:30;11.04;112.13
34145;HTU21D;69555;53.014;8.886;2024-03-22T10:50:59;11.16;111.62
34145;HTU21D;69555;53.014;8.886;2024-03-22T10:53:25;11.07;111.46
34145;HTU21D;69555;53.014;8.886;2024-03-22T10:55:53;11.13;111.62
34145;HTU21D;69555;53.014;8.886;2024-03-22T10:58:24;11.33;110.23
34145;HTU21D;69555;53.014;8.886;2024-03-22T11:00:53;11.28;110.16
34145;HTU21D;69555;53.014;8.886;2024-03-22T11:03:20;11.09;112.32
34145;HTU21D;69555;53.014;8.886;2024-03-22T11:05:46;10.96;112.28
34145;HTU21D;69555;53.014;8.886;2024-03-22T11:08:12;10.97;112.84
34145;HTU21D;69555;53.014;8.886;2024-03-22T11:10:38;10.90;112.66
34145;HTU21D;69555;53.014;8.886;2024-03-22T11:13:05;10.86;112.87
34145;HTU21D;69555;53.014;8.886;2024-03-22T11:15:33;10.93;113.24
34145;HTU21D;69555;53.014;8.886;2024-03-22T11:17:59;10.98;113.03
34145;HTU21D;69555;53.014;8.886;2024-03-22T11:20:25;11.16;112.58
34145;HTU21D;69555;53.014;8.886;2024-03-22T11:22:54;11.08;112.20
34145;HTU21D;69555;53.014;8.886;2024-03-22T11:25:20;11.16;112.17
34145;HTU21D;69555;53.014;8.886;2024-03-22T11:27:46;11.12;112.59
34145;HTU21D;69555;53.014;8.886;2024-03-22T11:30:12;11.20;112.32
34145;HTU21D;69555;53.014;8.886;2024-03-22T11:32:39;11.10;111.95
34145;HTU21D;69555;53.014;8.886;2024-03-22T11:35:12;11.09;112.42
34145;HTU21D;69555;53.014;8.886;2024-03-22T11:37:41;11.20;112.57
34145;HTU21D;69555;53.014;8.886;2024-03-22T11:40:11;11.25;111.30
34145;HTU21D;69555;53.014;8.886;2024-03-22T11:42:38;11.42;110.46
34145;HTU21D;69555;53.014;8.886;2024-03-22T11:45:05;11.39;110.17
34145;HTU21D;69555;53.014;8.886;2024-03-22T11:47:32;11.46;109.55
34145;HTU21D;69555;53.014;8.886;2024-03-22T11:49:58;11.51;109.88
34145;HTU21D;69555;53.014;8.886;2024-03-22T11:52:27;11.37;110.70
34145;HTU21D;69555;53.014;8.886;2024-03-22T11:54:53;11.47;109.62
34145;HTU21D;69555;53.014;8.886;2024-03-22T11:57:21;11.41;110.23
34145;HTU21D;69555;53.014;8.886;2024-03-22T11:59:46;11.51;109.08
34145;HTU21D;69555;53.014;8.886;2024-03-22T12:02:12;11.34;109.94
34145;HTU21D;69555;53.014;8.886;2024-03-22T12:04:47;11.27;109.89
34145;HTU21D;69555;53.014;8.886;2024-03-22T12:07:13;11.25;110.20
34145;HTU21D;69555;53.014;8.886;2024-03-22T12:09:40;11.41;109.46
34145;HTU21D;69555;53.014;8.886;2024-03-22T12:12:08;11.57;108.92
34145;HTU21D;69555;53.014;8.886;2024-03-22T12:14:34;11.38;109.78
34145;HTU21D;69555;53.014;8.886;2024-03-22T12:17:00;11.36;109.84
34145;HTU21D;69555;53.014;8.886;2024-03-22T12:19:25;11.31;110.10
34145;HTU21D;69555;53.014;8.886;2024-03-22T12:21:51;11.37;109.68
34145;HTU21D;69555;53.014;8.886;2024-03-22T12:24:17;11.43;109.51
34145;HTU21D;69555;53.014;8.886;2024-03-22T12:26:42;11.27;110.20
34145;HTU21D;69555;53.014;8.886;2024-03-22T12:29:07;11.24;110.37
34145;HTU21D;69555;53.014;8.886;2024-03-22T12:31:37;11.18;110.71
34145;HTU21D;69555;53.014;8.886;2024-03-22T12:34:02;11.25;110.62
34145;HTU21D;69555;53.014;8.886;2024-03-22T12:36:28;11.19;110.34
34145;HTU21D;69555;53.014;8.886;2024-03-22T12:38:53;11.19;110.55
34145;HTU21D;69555;53.014;8.886;2024-03-22T12:41:19;11.24;110.32
34145;HTU21D;69555;53.014;8.886;2024-03-22T12:43:44;11.20;111.30
34145;HTU21D;69555;53.014;8.886;2024-03-22T12:46:10;11.26;110.72
34145;HTU21D;69555;53.014;8.886;2024-03-22T12:48:35;11.22;110.71
34145;HTU21D;69555;53.014;8.886;2024-03-22T12:51:01;11.12;111.19
34145;HTU21D;69555;53.014;8.886;2024-03-22T12:53:27;11.18;111.43
34145;HTU21D;69555;53.014;8.886;2024-03-22T12:55:52;11.29;110.19
34145;HTU21D;69555;53.014;8.886;2024-03-22T12:58:18;11.15;111.36
34145;HTU21D;69555;53.014;8.886;2024-03-22T13:00:43;11.18;110.64
34145;HTU21D;69555;53.014;8.886;2024-03-22T13:03:08;11.23;109.94
34145;HTU21D;69555;53.014;8.886;2024-03-22T13:05:36;11.11;110.68
34145;HTU21D;69555;53.014;8.886;2024-03-22T13:08:02;11.16;110.85
34145;HTU21D;69555;53.014;8.886;2024-03-22T13:10:27;11.12;110.74
34145;HTU21D;69555;53.014;8.886;2024-03-22T13:12:53;11.13;110.62
34145;HTU21D;69555;53.014;8.886;2024-03-22T13:15:18;11.27;110.68
34145;HTU21D;69555;53.014;8.886;2024-03-22T13:17:43;11.39;110.05
34145;HTU21D;69555;53.014;8.886;2024-03-22T13:20:09;11.30;110.33
34145;HTU21D;69555;53.014;8.886;2024-03-22T13:22:39;11.29;109.57
34145;HTU21D;69555;53.014;8.886;2024-03-22T13:25:05;11.23;109.75
34145;HTU21D;69555;53.014;8.886;2024-03-22T13:27:33;11.16;110.51
34145;HTU21D;69555;53.014;8.886;2024-03-22T13:30:00;11.25;110.22
34145;HTU21D;69555;53.014;8.886;2024-03-22T13:32:25;11.42;110.34
34145;HTU21D;69555;53.014;8.886;2024-03-22T13:34:51;11.70;108.84
34145;HTU21D;69555;53.014;8.886;2024-03-22T13:37:16;11.30;110.63
34145;HTU21D;69555;53.014;8.886;2024-03-22T13:39:41;11.32;110.43
34145;HTU21D;69555;53.014;8.886;2024-03-22T13:42:07;11.39;111.36
34145;HTU21D;69555;53.014;8.886;2024-03-22T13:44:33;11.39;112.29
34145;HTU21D;69555;53.014;8.886;2024-03-22T13:46:59;11.70;111.07
34145;HTU21D;69555;53.014;8.886;2024-03-22T13:49:24;11.71;110.39
34145;HTU21D;69555;53.014;8.886;2024-03-22T13:51:50;11.78;110.06
34145;HTU21D;69555;53.014;8.886;2024-03-22T13:54:16;11.74;110.21
34145;HTU21D;69555;53.014;8.886;2024-03-22T13:56:42;11.66;111.19
34145;HTU21D;69555;53.014;8.886;2024-03-22T13:59:07;11.74;110.29
34145;HTU21D;69555;53.014;8.886;2024-03-22T14:01:34;11.88;108.78
34145;HTU21D;69555;53.014;8.886;2024-03-22T14:04:00;11.82;109.27
34145;HTU21D;69555;53.014;8.886;2024-03-22T14:06:26;11.79;109.47
34145;HTU21D;69555;53.014;8.886;2024-03-22T14:08:51;11.89;110.11
34145;HTU21D;69555;53.014;8.886;2024-03-22T14:11:20;11.74;110.45
34145;HTU21D;69555;53.014;8.886;2024-03-22T14:13:45;11.70;109.09
34145;HTU21D;69555;53.014;8.886;2024-03-22T14:16:11;11.82;108.79
34145;HTU21D;69555;53.014;8.886;2024-03-22T14:18:36;11.98;108.68
34145;HTU21D;69555;53.014;8.886;2024-03-22T14:21:02;11.99;108.85
34145;HTU21D;69555;53.014;8.886;2024-03-22T14:23:28;12.15;107.08
34145;HTU21D;69555;53.014;8.886;2024-03-22T14:25:54;12.14;107.14
34145;HTU21D;69555;53.014;8.886;2024-03-22T14:28:20;11.83;107.59
34145;HTU21D;69555;53.014;8.886;2024-03-22T14:30:46;11.86;107.16
34145;HTU21D;69555;53.014;8.886;2024-03-22T14:33:12;11.55;108.43
34145;HTU21D;69555;53.014;8.886;2024-03-22T14:35:37;11.60;108.17
34145;HTU21D;69555;53.014;8.886;2024-03-22T14:38:03;11.78;107.41
34145;HTU21D;69555;53.014;8.886;2024-03-22T14:40:29;11.63;108.78
34145;HTU21D;69555;53.014;8.886;2024-03-22T14:42:56;11.55;109.62
34145;HTU21D;69555;53.014;8.886;2024-03-22T14:45:22;11.33;110.34
34145;HTU21D;69555;53.014;8.886;2024-03-22T14:47:47;11.27;111.42
34145;HTU21D;69555;53.014;8.886;2024-03-22T14:50:13;11.42;110.39
34145;HTU21D;69555;53.014;8.886;2024-03-22T14:52:38;11.26;111.77
34145;HTU21D;69555;53.014;8.886;2024-03-22T14:55:05;11.19;113.11
34145;HTU21D;69555;53.014;8.886;2024-03-22T14:57:30;11.20;113.00
34145;HTU21D;69555;53.014;8.886;2024-03-22T14:59:56;11.25;113.06